Latest Coastal Weather Observations for Hamilton Island

IDQ60701

Issued at 4:52 am EST Tuesday 24 April 2018 (issued every 10 minutes, with the page automatically refreshed every 10 minutes)

About coastal observations | Map of coastal stations | Coastal observations for QLD | Marine services | Other Formats
Station Details ID: 033106 Name: HAMILTON ISLAND AIRPORT Lat: -20.37 Lon: 148.95 Height: 58.66 m
Data from the previous 72 hours. | See also: Recent months at Hamilton Island
Date/Time
EST
Temp
°C
Wind Pressure Rain since
9am
mm
Weather Cloud Vis
km
Sea
Height
m
Swell
Dir  Spd
kts
Gust
kts
hPa Trend Height
m
Period
s
Dir
24/04:30am 23.2 SSE 15 19 1013.0 - 0.0 - Partly cloudy 10 - - - -
24/04:00am 23.2 SSE 14 17 1013.0 - 0.0 - - 10 - - - -
24/03:30am 23.2 SSE 14 17 1012.9 - 0.0 - Partly cloudy 10 - - - -
24/03:00am 23.4 SSE 14 17 1012.9 - 0.0 - Partly cloudy 10 - - - -
24/02:30am 23.7 SE 17 19 1013.0 - 0.0 - Partly cloudy 10 - - - -
24/02:00am 23.8 SSE 17 19 1013.1 - 0.0 - Partly cloudy 10 - - - -
24/01:30am 23.6 SE 17 20 1013.2 - 0.0 - - 10 - - - -
24/01:00am 23.7 SE 16 19 1013.6 - 0.0 - - 10 - - - -
24/12:30am 23.6 SE 15 17 1013.7 - 0.0 - - 10 - - - -
24/12:00am 23.8 SE 15 17 1014.1 - 0.0 - - 10 - - - -
 
Date/Time
EST
Temp
°C
Wind Pressure Rain since
9am
mm
Weather Cloud Vis
km
Sea
Height
m
Swell
Dir  Spd
kts
Gust
kts
hPa Trend Height
m
Period
s
Dir
23/11:30pm 23.7 SE 14 15 1014.3 - 0.0 - - 10 - - - -
23/11:00pm 23.9 SE 15 18 1014.5 - 0.0 - - 10 - - - -
23/10:30pm 23.8 SE 15 17 1014.7 - 0.0 - - 10 - - - -
23/10:00pm 23.8 SE 16 19 1014.9 - 0.0 - - 10 - - - -
23/09:30pm 23.9 SE 16 18 1015.0 - 0.0 - - 10 - - - -
23/09:00pm 24.0 SE 15 19 1014.9 - 0.0 - - 10 - - - -
23/08:30pm 23.9 ESE 16 19 1014.7 - 0.0 - - 10 - - - -
23/08:00pm 24.0 ESE 17 20 1014.5 - 0.0 - - 10 - - - -
23/07:30pm 23.7 ESE 17 19 1014.3 - 0.0 - - 10 - - - -
23/07:00pm 23.7 SE 17 20 1014.0 - 0.0 - - 10 - - - -
23/06:30pm 23.8 SE 17 20 1013.7 - 0.0 - - 10 - - - -
23/06:00pm 23.6 SE 17 19 1013.6 - 0.0 - - 10 - - - -
23/05:30pm 23.8 SE 15 18 1013.4 - 0.0 - - 10 - - - -
23/05:00pm 24.1 SE 16 19 1013.0 - 0.0 - - 10 - - - -
23/04:30pm 24.3 SE 15 16 1012.8 - 0.0 - - 10 - - - -
23/04:00pm 24.7 SE 15 17 1012.7 - 0.0 - - 10 - - - -
23/03:30pm 24.6 SE 16 18 1012.6 - 0.0 - - 10 - - - -
23/03:00pm 24.8 SE 17 19 1012.5 - 0.0 - - 10 - - - -
23/02:30pm 24.8 SE 18 21 1012.5 - 0.0 - - 10 - - - -
23/02:00pm 25.1 SSE 20 24 1012.8 - 0.0 - - 10 - - - -
23/01:30pm 24.9 SSE 21 24 1012.9 - 0.0 - Partly cloudy 10 - - - -
23/01:00pm 25.1 SSE 21 25 1013.2 - 0.0 - Partly cloudy 10 - - - -
23/12:30pm 25.1 SSE 22 25 1013.4 - 0.0 - Partly cloudy 10 - - - -
23/12:00pm 25.3 SSE 23 26 1013.7 - 0.0 - Partly cloudy 10 - - - -
23/11:30am 24.8 SSE 23 27 1014.0 - 0.0 - Partly cloudy 10 - - - -
23/11:00am 25.2 SSE 21 25 1014.5 - 0.0 - Partly cloudy 10 - - - -
23/10:30am 25.0 SSE 20 24 1015.0 - 0.0 - Partly cloudy 10 - - - -
23/10:00am 25.0 SSE 21 26 1015.0 - 0.0 - Partly cloudy 10 - - - -
23/09:30am 24.5 SSE 20 23 1015.1 - 0.0 - Partly cloudy 10 - - - -
23/09:24am 24.7 SSE 19 23 1015.1 - 0.0 - Partly cloudy 10 - - - -
23/09:14am 24.0 SSE 19 23 1015.1 - 0.0 - Partly cloudy 10 - - - -
23/09:00am 23.7 SSE 19 23 1015.1 - 3.2 - Cloudy 10 - - - -
23/08:30am 24.4 SSE 18 23 1014.7 - 3.2 - Partly cloudy 10 - - - -
23/08:00am 23.9 SSE 19 23 1014.5 - 3.2 - Partly cloudy 10 - - - -
23/07:30am 23.6 SSE 18 22 1014.3 - 3.2 - Partly cloudy 10 - - - -
23/07:00am 23.8 SSE 17 21 1014.0 - 3.2 - Partly cloudy 10 - - - -
23/06:30am 23.7 SSE 18 23 1013.7 - 3.2 - Partly cloudy 10 - - - -
23/06:00am 24.0 SE 21 24 1013.2 - 3.2 - Mostly clear 10 - - - -
23/05:30am 24.0 SE 20 22 1013.1 - 3.2 - Partly cloudy 10 - - - -
23/05:00am 24.1 SE 19 23 1013.0 - 3.2 - Partly cloudy 10 - - - -
23/04:30am 23.8 SE 16 21 1012.9 - 3.2 - Partly cloudy 10 - - - -
23/04:00am 23.9 SE 18 20 1012.8 - 3.2 - Partly cloudy 10 - - - -
23/03:30am 24.1 SE 19 23 1012.9 - 3.2 - Partly cloudy 10 - - - -
23/03:00am 23.7 SE 16 19 1013.0 - 3.2 - Mostly clear 10 - - - -
23/02:30am 23.9 SE 17 19 1013.2 - 3.2 - Partly cloudy 10 - - - -
23/02:00am 23.7 SE 18 20 1013.4 - 3.2 - Partly cloudy 10 - - - -
23/01:30am 23.7 SE 18 20 1013.7 - 3.2 - - 10 - - - -
23/01:00am 23.6 SE 16 19 1014.1 - 3.2 - - 10 - - - -
23/12:30am 23.4 SE 14 17 1014.3 - 3.2 - - 10 - - - -
23/12:00am 22.9 ESE 14 17 1014.6 - 3.2 Recent precip. Partly cloudy 10 - - - -
 
Date/Time
EST
Temp
°C
Wind Pressure Rain since
9am
mm
Weather Cloud Vis
km
Sea
Height
m
Swell
Dir  Spd
kts
Gust
kts
hPa Trend Height
m
Period
s
Dir
22/11:39pm 22.2 ESE 20 30 1014.7 - 3.0 - Partly cloudy 5 - - - -
22/11:35pm 23.5 SE 18 28 1014.5 - 0.4 - Partly cloudy 10 - - - -
22/11:30pm 23.9 SE 17 20 1014.7 - 0.2 - - 10 - - - -
22/11:00pm 23.7 SE 18 20 1014.7 - 0.2 - - 10 - - - -
22/10:30pm 23.2 SE 20 24 1014.9 - 0.2 - Partly cloudy 10 - - - -
22/10:00pm 23.6 SE 17 19 1015.0 - 0.2 - - 10 - - - -
22/09:30pm 23.6 SE 18 20 1015.2 - 0.2 - Partly cloudy 10 - - - -
22/09:00pm 22.6 SE 19 29 1015.2 - 0.0 - Partly cloudy 10 - - - -
22/08:49pm 24.2 SE 18 31 1014.8 - 0.0 - Partly cloudy 10 - - - -
22/08:30pm 24.1 SE 17 20 1014.9 - 0.0 - Partly cloudy 10 - - - -
22/08:00pm 24.0 SE 18 21 1014.5 - 0.0 - Partly cloudy 10 - - - -
22/07:30pm 23.9 SE 18 21 1014.3 - 0.0 - - 10 - - - -
22/07:00pm 23.8 SE 18 22 1014.0 - 0.0 - - 10 - - - -
22/06:30pm 24.0 SE 19 22 1013.8 - 0.0 - - 10 - - - -
22/06:00pm 23.9 SE 21 25 1013.6 - 0.0 - Mostly clear 10 - - - -
22/05:30pm 24.3 SE 22 26 1013.3 - 0.0 - Partly cloudy 10 - - - -
22/05:00pm 24.3 SE 21 25 1013.0 - 0.0 - Partly cloudy 10 - - - -
22/04:30pm 24.4 SE 20 23 1012.9 - 0.0 - - 10 - - - -
22/04:00pm 24.6 SE 19 23 1012.7 - 0.0 - - 10 - - - -
22/03:30pm 24.7 SE 20 23 1012.7 - 0.0 - - 10 - - - -
22/03:00pm 25.0 SE 19 21 1012.7 - 0.0 - - 10 - - - -
22/02:30pm 25.0 SE 19 21 1012.8 - 0.0 - - 10 - - - -
22/02:00pm 25.1 SSE 20 23 1012.9 - 0.0 - - 10 - - - -
22/01:30pm 25.0 SSE 21 24 1013.2 - 0.0 - - 10 - - - -
22/01:00pm 25.0 SSE 23 26 1013.5 - 0.0 - Partly cloudy 10 - - - -
22/12:30pm 25.0 SSE 25 27 1013.7 - 0.0 - Partly cloudy 10 - - - -
22/12:00pm 25.1 SSE 23 26 1014.2 - 0.0 - - 10 - - - -
22/11:30am 25.0 SSE 21 25 1014.7 - 0.0 - Partly cloudy 10 - - - -
22/11:00am 25.2 SSE 22 26 1014.9 - 0.0 - Partly cloudy 10 - - - -
22/10:56am 25.1 SSE 22 26 1014.9 - 0.0 - Partly cloudy 10 - - - -
22/10:30am 24.8 SSE 20 24 1015.1 - 0.0 - Partly cloudy 10 - - - -
22/10:29am 24.8 SSE 20 24 1015.1 - 0.0 - Partly cloudy 10 - - - -
22/10:00am 24.7 SSE 19 23 1015.3 - 0.0 - Partly cloudy 10 - - - -
22/09:30am 24.4 SSE 19 23 1015.5 - 0.0 - Partly cloudy 10 - - - -
22/09:00am 24.1 SSE 17 21 1015.3 - 0.0 - Mostly clear 10 - - - -
22/08:30am 24.6 SSE 16 19 1015.3 - 0.0 - - 10 - - - -
22/08:00am 24.2 SSE 17 20 1015.2 - 0.0 - Partly cloudy 10 - - - -
22/07:30am 23.8 SSE 15 19 1014.9 - 0.0 - Partly cloudy 10 - - - -
22/07:00am 24.5 SE 18 21 1014.6 - 0.0 - Partly cloudy 10 - - - -
22/06:30am 24.1 SE 19 21 1014.2 - 0.0 - Partly cloudy 10 - - - -
22/06:00am 24.0 SE 14 16 1013.9 - 0.0 - Mostly clear 10 - - - -
22/05:30am 24.0 SE 16 18 1013.7 - 0.0 - Partly cloudy 10 - - - -
22/05:00am 23.9 SE 15 17 1013.5 - 0.0 - Partly cloudy 10 - - - -
22/04:30am 23.9 SE 15 18 1013.4 - 0.0 - Partly cloudy 10 - - - -
22/04:00am 24.0 SE 16 18 1013.3 - 0.0 - Partly cloudy 10 - - - -
22/03:30am 24.1 SE 16 19 1013.4 - 0.0 - Partly cloudy 10 - - - -
22/03:00am 24.1 SE 17 19 1013.5 - 0.0 - - 10 - - - -
22/02:30am 24.1 SE 16 18 1013.7 - 0.0 - - 10 - - - -
22/02:00am 24.3 SE 17 20 1013.8 - 0.0 - Partly cloudy 10 - - - -
22/01:30am 24.2 SE 15 17 1014.0 - 0.0 - Partly cloudy 10 - - - -
22/01:00am 24.2 SE 15 19 1014.2 - 0.0 - Partly cloudy 10 - - - -
22/12:30am 24.4 SE 15 19 1014.4 - 0.0 - Partly cloudy 10 - - - -
22/12:00am 24.2 SE 16 18 1014.6 - 0.0 - - 10 - - - -
 
Date/Time
EST
Temp
°C
Wind Pressure Rain since
9am
mm
Weather Cloud Vis
km
Sea
Height
m
Swell
Dir  Spd
kts
Gust
kts
hPa Trend Height
m
Period
s
Dir
21/11:30pm 24.2 SE 15 17 1014.8 - 0.0 - Partly cloudy 10 - - - -
21/11:00pm 24.2 SE 16 18 1014.8 - 0.0 - Partly cloudy 10 - - - -
21/10:30pm 24.3 SE 16 18 1014.8 - 0.0 - Partly cloudy 10 - - - -
21/10:00pm 24.3 SE 16 18 1014.8 - 0.0 - Partly cloudy 10 - - - -
21/09:30pm 24.2 SE 16 18 1014.8 - 0.0 - Partly cloudy 10 - - - -
21/09:00pm 24.3 SE 17 20 1014.8 - 0.0 - Mostly clear 10 - - - -
21/08:30pm 24.2 SE 16 18 1014.8 - 0.0 - Partly cloudy 10 - - - -
21/08:00pm 24.3 SE 18 21 1014.6 - 0.0 - - 10 - - - -
21/07:30pm 24.2 SE 16 19 1014.4 - 0.0 - Partly cloudy 10 - - - -
21/07:00pm 24.1 SE 16 19 1014.0 - 0.0 - - 10 - - - -
21/06:30pm 24.2 SE 16 18 1013.5 - 0.0 - - 10 - - - -
21/06:00pm 24.2 ESE 15 18 1013.2 - 0.0 - - 10 - - - -
21/05:30pm 24.4 ESE 16 19 1013.0 - 0.0 - - 10 - - - -
21/05:00pm 24.7 SE 17 19 1012.8 - 0.0 - - 10 - - - -
21/04:30pm 25.0 SE 15 17 1012.8 - 0.0 - - 10 - - - -
21/04:00pm 25.2 SE 17 19 1012.7 - 0.0 - - 10 - - - -
21/03:30pm 25.5 SE 16 19 1012.9 - 0.0 - - 10 - - - -
21/03:00pm 25.7 SE 18 19 1013.0 - 0.0 - - 10 - - - -
21/02:30pm 25.9 SE 17 19 1013.0 - 0.0 - Partly cloudy 10 - - - -
21/02:00pm 25.9 SE 17 19 1013.1 - 0.0 - Partly cloudy 10 - - - -
21/01:30pm 25.9 SSE 18 22 1013.2 - 0.0 - Partly cloudy 10 - - - -
21/01:00pm 25.8 SSE 18 21 1013.5 - 0.0 - Partly cloudy 10 - - - -
21/12:30pm 25.9 SSE 18 21 1013.7 - 0.0 - Partly cloudy 10 - - - -
21/12:00pm 25.9 SSE 18 21 1014.1 - 0.0 - Mostly clear 10 - - - -
21/11:30am 25.7 SSE 16 21 1014.7 - 0.0 - Partly cloudy 10 - - - -
21/11:00am 25.7 SSE 16 18 1015.1 - 0.0 - Partly cloudy 10 - - - -
21/10:30am 25.5 SSE 17 19 1015.5 - 0.0 - Partly cloudy 10 - - - -
21/10:00am 25.6 SSE 16 19 1015.6 - 0.0 - Partly cloudy 10 - - - -
21/09:30am 25.4 SSE 13 16 1015.8 - 0.0 - - 10 - - - -
21/09:00am 25.3 SSE 13 17 1015.6 - 0.0 - Partly cloudy 10 - - - -
21/08:30am 24.9 SSE 15 18 1015.5 - 0.0 - Partly cloudy 10 - - - -
21/08:00am 25.0 SE 14 16 1015.3 - 0.0 - - 10 - - - -
21/07:30am 25.2 SE 14 16 1015.1 - 0.0 - Partly cloudy 10 - - - -
21/07:00am 24.1 SE 13 15 1014.8 - 0.0 - - 10 - - - -
21/06:30am 23.8 SE 13 15 1014.5 - 0.0 - - 10 - - - -
21/06:00am 23.8 SE 13 15 1014.2 - 0.0 - - 10 - - - -
21/05:30am 23.9 SE 12 13 1014.0 - 0.0 - - 10 - - - -
21/05:00am 23.9 SE 13 15 1013.7 - 0.0 - Partly cloudy 10 - - - -

Other Formats:

Comma delimited format used in spreadsheet applications
http://www.bom.gov.au/fwo/IDQ60701/IDQ60701.94368.axf

JavaScript Object Notation format (JSON) in row-major order
http://www.bom.gov.au/fwo/IDQ60701/IDQ60701.94368.json